AirNav   Bose Proflight Series 2 Wireless Aviation Headset
 
 939 users online  

9NE6 Bates Airpark
Omaha, Nebraska, USA

GOING TO OMAHA?


FAA INFORMATION EFFECTIVE 07 NOVEMBER 2019

Location

FAA Identifier: 9NE6
Lat/Long: 41-20-19.4200N 096-05-18.7450W
41-20.323667N 096-05.312417W
41.3387278,-96.0885403
(estimated)
Elevation: 1250 ft. / 381 m (estimated)
Variation: 06E (1985)
From city: 3 miles NW of OMAHA, NE
Time zone: UTC -6 (UTC -5 during Daylight Saving Time)
Zip code: 68142

Airport Operations

Airport use: Private use. Permission required prior to landing
Control tower: no
ARTCC: MINNEAPOLIS CENTER
FSS: COLUMBUS FLIGHT SERVICE STATION
Attendance: UNATNDD
Wind indicator: no
Segmented circle: no

Airport Communications

WX AWOS-3 at BTA (5 nm N): 120.225 (402-426-0448)
WX AWOS-3 at MLE (9 nm S): 118.25 (402-895-6778)
WX ASOS at OMA (9 nm E): PHONE 402-271-7515
WX AWOS-3 at CBF (16 nm E): 126.575 (712-323-1542)

Nearby radio navigation aids

VOR radial/distance  VOR name  Freq  Var
OVRr295/18.9OMAHA VORTAC116.3008E
SCBr117/29.1SCRIBNER VOR/DME111.0006E
LNKr041/38.6LINCOLN VORTAC116.1009E

 
NDB name  Hdg/Dist  Freq  Var  ID
WAHOO069/23.740006EAHQ .- .... --.-
PLATTSMOUTH336/25.032905EPMV .--. -- ...-

Airport Services

Runway Information

Runway 18/36

Dimensions: 1800 x 50 ft. / 549 x 15 m
Surface: turf
RUNWAY 18  RUNWAY 36
Latitude: 41-20.175500N41-20.471833N
Longitude: 096-05.313500W096-05.311333W
Elevation: 1216.0 ft.1238.0 ft.
Traffic pattern: leftleft
Runway heading: 174 magnetic, 180 true354 magnetic, 000 true

Airport Ownership and Management from official FAA records

Ownership: Privately-owned
Owner: WELLAND J & LEE A. BATES
11110 STATE STREET
OMAHA, NE 68142
Phone (402) 680-2630
Manager: WELLAND J & LEE A. BATES
11110 STATE STREET
OMAHA, NE 68142
Phone (402) 680-2630
OTHER: LEE BATES, 402-680-2630

Additional Remarks

FOR CD CTC OMAHA APCH AT 402-682-4395.

Instrument Procedures

There are no published instrument procedures at 9NE6.

Some nearby airports with instrument procedures:

KBTA - Blair Municipal Airport (5 nm N)
KMLE - Millard Airport (9 nm S)
KOMA - Eppley Airfield (9 nm E)
KOFF - Offutt Air Force Base (15 nm SE)
KCBF - Council Bluffs Municipal Airport (16 nm E)
 
Loc | Ops | Rwys | IFR | FBO | Links
Com | Nav | Svcs | Stats | Notes

Silverhawk Aviation, Inc.
AirBoss

 
Area around 9NE6 (Bates Airpark)
 
Road maps at: MapQuest Bing Google
 
Aerial photo
No photo
 
Sectional chart

 
Airport distance calculator
Flying to Bates Airpark? Find the distance to fly.

From to 9NE6

Sunrise and sunset
Times for 19-Nov-2019
 Local
(UTC-6)
 Zulu
(UTC)
Morning civil twilight06:4912:49
Sunrise07:1813:18
Sunset17:0123:01
Evening civil twilight17:3123:31

Current date and time
Zulu (UTC)  19-Nov-2019 12:43:39
Local (UTC-6)  19-Nov-2019 06:43:39
 
METAR
KBTA 
5nm N 
191215Z AUTO 27007KT 10SM CLR 02/01 A2984 RMK AO2 T00220006
KOMA 
9nm E 
191152Z 00000KT 10SM FEW180 03/02 A2985 RMK AO2 SLP112 70001 T00280017 10078 20028 53014 $
KMLE 
9nm S 
191215Z AUTO 00000KT 10SM CLR 01/01 A2986 RMK AO2 T00120005
KCBF 
15nm E 
191215Z AUTO 26007KT 10SM CLR 03/03 A2983 RMK AO2
KOFF 
15nm SE 
191156Z 31003KT 10SM CLR 03/01 A2986 RMK AO2A SLP117 RVRNO $
TAF
KOMA 
9nm E 
191128Z 1912/2012 30005KT P6SM SKC FM192300 13005KT P6SM FEW250
KOFF 
15nm SE 
191000Z 1910/2016 30005KT 9999 SKC QNH2982INS BECMG 2007/2008 13009KT 9999 FEW250 WS020/17030KT QNH2980INS TX13/1922Z TN03/1912Z
NOTAMs
Click for the latest NOTAMs
NOTAMs are issued by the DoD/FAA and will open in a separate window not controlled by AirNav.

 

 
 

Would you like to see your business listed on this page?

 If your business provides an interesting product or service to pilots, flight crews, aircraft, or users of the Bates Airpark, you should consider listing it here.  To start the listing process, click on the button below
 
Add a business
 

Other Pages about Bates Airpark

Update a link
 
Copyright © AirNav, LLC. All rights reserved. Privacy Policy  Contact